Kanaskat, Washington
Current Conditions -  °F | °C
As of 7:53 PM on Friday 24 Oct 2014 (Local Time) from KRNT Reporting Station
Light Rain Light Rain  
Wind Chill: 13°   Ceiling: 6500
Heat Index: 13°   Visibility: 7mi
Dew Point: 11°   Wind: 0mph
Humidity: 86%   Direction: NA
Pressure: 29.85"   Gusts: NA
Location:  47.3777°N, 121.913°W
Report Text: KRNT 250253Z 00000KT 7SM -RA OVC065 13/11 A2985 RMK AO2 RAB19 SLP113 P0002 60002 T01280106 56011
Loading
Personal Weather Stations






























Interactive Weather Map
Tropical Storm Tracking
New forecast layout! Learn more

10-Day Weather Forecast

Advertisements
Track Severe Weather on mobile